TISX/STX METAR and TAF weather

Enter ICAO airport designator
Station Type Date Time Source
TISX METAR 2019/07/20 19:53 UTC NOAA

TISX 201953Z 11010KT 10SM CLR 31/23 A3000 RMK AO2 SLP157 T03060228 $


Station Type Date Time Source
TISX Decoded METAR 2019/07/20 19:53 UTC NOAA

Christiansted, Henry E. Rohlsen Airport, Virgin Islands (TISX) 17-42N 064-48W 17M
Jul 20, 2019 - 03:53 PM EDT / 2019.07.20 1953 UTC
Wind: from the ESE (110 degrees) at 12 MPH (10 KT):0
Visibility: 10 mile(s):0
Sky conditions: clear
Temperature: 87.1 F (30.6 C)
Heat index: 94.5 F (34.7 C):1
Dew Point: 73.0 F (22.8 C)
Relative Humidity: 63%
Pressure (altimeter): 30 in. Hg (1015 hPa)
ob: TISX 201953Z 11010KT 10SM CLR 31/23 A3000 RMK AO2 SLP157 T03060228
cycle: 20

Station Type Date Time Source
TISX TAF 2019/07/20 18:54 UTC NOAA

TAF TISX 201749Z 2018/2118 10013KT P6SM FEW025
FM202100 04005KT P6SM FEW025
FM211300 11011KT P6SM FEW025

Example: see airport list